createdAt,value
2019-06-25T00:01:05.067Z,2.73
2019-06-25T00:03:34.059Z,1.93
2019-06-25T00:06:02.971Z,2.60
2019-06-25T00:08:31.938Z,2.23
2019-06-25T00:11:00.849Z,3.37
2019-06-25T00:13:29.841Z,7.17
2019-06-25T00:15:58.824Z,2.30
2019-06-25T00:18:27.725Z,2.83
2019-06-25T00:20:56.575Z,3.60
2019-06-25T00:23:25.504Z,2.40
2019-06-25T00:25:54.474Z,3.50
2019-06-25T00:28:23.368Z,2.07
2019-06-25T00:30:52.227Z,4.73
2019-06-25T00:33:21.251Z,4.67
2019-06-25T00:35:50.125Z,2.30
2019-06-25T00:38:18.952Z,1.93
2019-06-25T00:40:47.917Z,2.23
2019-06-25T00:43:16.806Z,3.80
2019-06-25T00:45:45.713Z,2.67
2019-06-25T00:48:14.590Z,2.10
2019-06-25T00:50:43.579Z,2.10
2019-06-25T00:53:12.426Z,2.37
2019-06-25T00:55:41.362Z,2.23
2019-06-25T00:58:10.189Z,3.53
2019-06-25T01:00:39.165Z,3.13
2019-06-25T01:03:19.210Z,5.10
2019-06-25T01:05:48.181Z,3.03
2019-06-25T01:08:17.086Z,2.80
2019-06-25T01:10:46.065Z,4.47
2019-06-25T01:13:14.951Z,1.97
2019-06-25T01:15:43.942Z,3.27
2019-06-25T01:18:12.837Z,5.13
2019-06-25T01:20:41.726Z,2.53
2019-06-25T01:23:10.613Z,2.67
2019-06-25T01:25:39.505Z,3.07
2019-06-25T01:28:08.408Z,2.40
2019-06-25T01:30:37.296Z,3.13
2019-06-25T01:33:06.184Z,2.27
2019-06-25T01:35:35.157Z,3.60
2019-06-25T01:38:04.278Z,2.60
2019-06-25T01:40:33.165Z,5.13
2019-06-25T01:43:02.038Z,2.77
2019-06-25T01:45:30.928Z,3.83
2019-06-25T01:47:59.888Z,5.97
2019-06-25T01:50:28.806Z,2.73
2019-06-25T01:52:57.715Z,3.40
2019-06-25T01:55:26.615Z,2.83
2019-06-25T01:57:55.482Z,4.10
2019-06-25T02:00:24.774Z,2.03
2019-06-25T02:02:53.611Z,4.30
2019-06-25T02:05:22.469Z,2.83
2019-06-25T02:07:51.449Z,2.37
2019-06-25T02:10:22.868Z,2.97
2019-06-25T02:12:51.482Z,4.40
2019-06-25T02:15:20.467Z,2.53
2019-06-25T02:17:49.422Z,3.13
2019-06-25T02:20:18.338Z,4.73
2019-06-25T02:22:47.243Z,3.97
2019-06-25T02:25:16.743Z,2.60
2019-06-25T02:27:45.629Z,3.13
2019-06-25T02:30:15.038Z,4.00
2019-06-25T02:32:43.926Z,3.03
2019-06-25T02:35:13.059Z,3.00
2019-06-25T02:37:41.918Z,3.93
2019-06-25T02:40:11.426Z,2.73
2019-06-25T02:42:40.459Z,6.40
2019-06-25T02:45:09.756Z,5.03
2019-06-25T02:47:38.810Z,2.87
2019-06-25T02:50:08.117Z,2.70
2019-06-25T02:52:36.987Z,5.00
2019-06-25T02:55:06.737Z,2.70
2019-06-25T02:57:35.610Z,3.97
2019-06-25T03:00:10.258Z,4.37
2019-06-25T03:02:35.744Z,3.23
2019-06-25T03:05:05.127Z,4.13
2019-06-25T03:07:34.012Z,3.00
2019-06-25T03:10:02.874Z,5.67
2019-06-25T03:12:31.836Z,3.67
2019-06-25T03:15:00.700Z,4.13
2019-06-25T03:17:29.590Z,2.83
2019-06-25T03:19:58.482Z,4.77
2019-06-25T03:22:27.351Z,2.63
2019-06-25T03:24:56.241Z,3.83
2019-06-25T03:27:25.141Z,3.20
2019-06-25T03:29:54.037Z,3.57
2019-06-25T03:32:23.030Z,3.13
2019-06-25T03:34:51.921Z,5.17
2019-06-25T03:37:20.793Z,4.87
2019-06-25T03:39:49.698Z,3.23
2019-06-25T03:42:18.568Z,3.60
2019-06-25T03:44:47.443Z,3.27
2019-06-25T03:47:16.348Z,3.43
2019-06-25T03:49:45.242Z,3.57
2019-06-25T03:52:14.133Z,3.20
2019-06-25T03:54:43.023Z,3.87
2019-06-25T03:57:11.897Z,3.40
2019-06-25T03:59:40.925Z,3.50
2019-06-25T04:02:17.240Z,5.20
2019-06-25T04:04:40.371Z,3.33
2019-06-25T04:07:09.310Z,3.20
2019-06-25T04:09:38.142Z,3.23
2019-06-25T04:12:07.111Z,2.90
2019-06-25T04:14:35.978Z,4.00
2019-06-25T04:17:05.303Z,5.87
2019-06-25T04:19:34.182Z,3.80
2019-06-25T04:22:03.176Z,3.23
2019-06-25T04:24:32.150Z,3.80
2019-06-25T04:27:01.039Z,6.23
2019-06-25T04:29:30.035Z,3.87
2019-06-25T04:31:58.940Z,3.53
2019-06-25T04:34:27.810Z,4.87
2019-06-25T04:36:56.699Z,3.37
2019-06-25T04:39:25.518Z,3.87
2019-06-25T04:41:54.486Z,4.00
2019-06-25T04:44:23.556Z,6.27
2019-06-25T04:46:52.669Z,6.80
2019-06-25T04:49:21.565Z,3.83
2019-06-25T04:51:50.466Z,4.70
2019-06-25T04:54:19.358Z,4.70
2019-06-25T04:56:48.339Z,4.20
2019-06-25T04:59:17.249Z,4.70
2019-06-25T05:01:46.214Z,3.17
2019-06-25T05:04:15.101Z,3.43
2019-06-25T05:06:43.994Z,3.40
2019-06-25T05:09:12.889Z,2.80
2019-06-25T05:11:41.870Z,2.93
2019-06-25T05:14:11.148Z,2.87
2019-06-25T05:16:40.888Z,3.57
2019-06-25T05:19:09.771Z,3.00
2019-06-25T05:21:38.662Z,5.30
2019-06-25T05:24:07.551Z,3.70
2019-06-25T05:26:36.443Z,3.20
2019-06-25T05:29:05.295Z,2.90
2019-06-25T05:31:34.155Z,2.83
2019-06-25T05:34:02.994Z,2.30
2019-06-25T05:36:54.017Z,3.03
2019-06-25T05:39:22.904Z,3.33
2019-06-25T05:41:51.913Z,2.50
2019-06-25T05:44:20.753Z,2.57
2019-06-25T05:46:49.695Z,2.50
2019-06-25T05:49:18.530Z,2.53
2019-06-25T05:51:47.474Z,2.63
2019-06-25T05:54:16.346Z,6.33
2019-06-25T05:56:45.234Z,3.47
2019-06-25T05:59:14.136Z,2.70
2019-06-25T06:01:43.022Z,2.90
2019-06-25T06:04:11.973Z,5.30
2019-06-25T06:06:40.899Z,2.60
2019-06-25T06:09:09.892Z,10.13
2019-06-25T06:11:38.767Z,1.97
2019-06-25T06:14:07.977Z,3.30
2019-06-25T06:16:36.977Z,3.37
2019-06-25T06:19:05.979Z,3.93
2019-06-25T06:21:34.851Z,2.80
2019-06-25T06:24:03.859Z,2.50
2019-06-25T06:26:32.750Z,3.30
2019-06-25T06:29:01.725Z,4.00
2019-06-25T06:31:30.618Z,2.30
2019-06-25T06:33:59.508Z,2.63
2019-06-25T06:36:28.392Z,2.60
2019-06-25T06:38:58.006Z,6.93
2019-06-25T06:41:26.906Z,5.37
2019-06-25T06:43:56.103Z,3.33
2019-06-25T06:46:24.978Z,3.53
2019-06-25T06:48:53.883Z,2.73
2019-06-25T06:51:22.754Z,2.43
2019-06-25T06:53:51.748Z,2.40
2019-06-25T06:56:20.639Z,3.87
2019-06-25T06:58:49.643Z,3.37
2019-06-25T07:01:18.637Z,3.25
2019-06-25T07:03:53.226Z,2.67
2019-06-25T07:06:18.259Z,3.25
2019-06-25T07:08:47.133Z,3.40
2019-06-25T07:11:16.144Z,3.95
2019-06-25T07:13:45.114Z,3.72
2019-06-25T07:16:13.976Z,6.12
2019-06-25T07:18:42.999Z,2.80
2019-06-25T07:21:12.115Z,3.10
2019-06-25T07:23:40.974Z,3.30
2019-06-25T07:26:09.871Z,2.90
2019-06-25T07:28:38.927Z,3.10
2019-06-25T07:31:07.954Z,3.57
2019-06-25T07:33:37.051Z,6.00
2019-06-25T07:36:05.916Z,5.00
2019-06-25T07:38:34.830Z,3.12
2019-06-25T07:41:03.716Z,6.22
2019-06-25T07:43:32.611Z,3.00
2019-06-25T07:46:01.625Z,4.70
2019-06-25T07:48:30.498Z,2.77
2019-06-25T07:50:59.397Z,3.30
2019-06-25T07:53:28.271Z,3.27
2019-06-25T07:55:57.195Z,4.70
2019-06-25T07:58:26.050Z,5.00
2019-06-25T08:00:55.145Z,3.83
2019-06-25T08:03:23.988Z,2.80
2019-06-25T08:05:52.925Z,6.17
2019-06-25T08:08:21.816Z,3.40
2019-06-25T08:10:50.806Z,3.42
2019-06-25T08:13:19.694Z,5.05
2019-06-25T08:15:48.687Z,5.70
2019-06-25T08:18:17.596Z,3.10
2019-06-25T08:20:46.487Z,3.45
2019-06-25T08:23:15.355Z,3.52
2019-06-25T08:25:44.248Z,4.22
2019-06-25T08:28:13.138Z,3.83
2019-06-25T08:30:42.080Z,3.62
2019-06-25T08:33:11.037Z,3.62
2019-06-25T08:35:40.216Z,3.20
2019-06-25T08:38:09.109Z,3.80
2019-06-25T08:40:38.101Z,3.80
2019-06-25T08:43:07.223Z,4.17
2019-06-25T08:45:36.183Z,4.73
2019-06-25T08:48:05.318Z,4.70
2019-06-25T08:50:34.374Z,4.27
2019-06-25T08:53:03.500Z,4.17
2019-06-25T08:55:32.374Z,4.23
2019-06-25T08:58:01.241Z,3.60
2019-06-25T09:00:30.303Z,4.03
2019-06-25T09:02:59.230Z,4.13
2019-06-25T09:05:28.259Z,3.60
2019-06-25T09:07:57.118Z,3.90
2019-06-25T09:10:26.005Z,4.50
2019-06-25T09:12:54.842Z,3.97
2019-06-25T09:15:23.803Z,4.60
2019-06-25T09:17:52.676Z,4.23
2019-06-25T09:20:21.565Z,4.83
2019-06-25T09:22:50.450Z,4.00
2019-06-25T09:25:19.345Z,3.97
2019-06-25T09:27:48.316Z,4.17
2019-06-25T09:30:17.859Z,4.00
2019-06-25T09:32:46.723Z,3.77
2019-06-25T09:35:19.773Z,3.87
2019-06-25T09:37:46.346Z,4.40
2019-06-25T09:40:14.576Z,3.70
2019-06-25T09:42:42.796Z,3.67
2019-06-25T09:45:10.979Z,3.97
2019-06-25T09:47:40.627Z,3.73
2019-06-25T09:50:09.566Z,4.07
2019-06-25T09:52:38.467Z,4.00
2019-06-25T09:55:07.651Z,4.43
2019-06-25T09:57:36.567Z,3.93
2019-06-25T10:00:07.665Z,3.80
2019-06-25T10:02:36.577Z,4.30
2019-06-25T10:05:06.750Z,5.87
2019-06-25T10:07:36.630Z,4.33
2019-06-25T10:10:05.912Z,3.90
2019-06-25T10:12:34.796Z,4.10
2019-06-25T10:15:03.888Z,3.47
2019-06-25T10:17:32.798Z,4.30
2019-06-25T10:20:01.669Z,3.73
2019-06-25T10:22:30.680Z,4.83
2019-06-25T10:24:59.551Z,4.53
2019-06-25T10:27:28.562Z,3.53
2019-06-25T10:29:57.388Z,3.93
2019-06-25T10:32:26.322Z,3.40
2019-06-25T10:34:55.226Z,3.43
2019-06-25T10:37:24.070Z,3.30
2019-06-25T10:39:52.996Z,3.50
2019-06-25T10:42:21.890Z,4.00
2019-06-25T10:44:50.775Z,3.43
2019-06-25T10:47:19.695Z,3.60
2019-06-25T10:49:48.548Z,3.43
2019-06-25T10:52:17.441Z,3.30
2019-06-25T10:54:46.331Z,4.03
2019-06-25T10:57:15.261Z,3.40
2019-06-25T10:59:44.115Z,5.07
2019-06-25T11:02:13.009Z,3.47
2019-06-25T11:04:41.991Z,3.73
2019-06-25T11:07:10.877Z,3.57
2019-06-25T11:09:39.917Z,3.20
2019-06-25T11:12:08.763Z,4.43
2019-06-25T11:14:37.660Z,3.60
2019-06-25T11:17:06.649Z,3.53
2019-06-25T11:19:35.531Z,4.03
2019-06-25T11:22:04.524Z,4.27
2019-06-25T11:24:33.413Z,3.90
2019-06-25T11:27:02.410Z,3.93
2019-06-25T11:29:31.300Z,3.83
2019-06-25T11:32:00.163Z,4.00
2019-06-25T11:34:29.075Z,3.83
2019-06-25T11:36:57.978Z,3.70
2019-06-25T11:39:26.983Z,5.30
2019-06-25T11:41:55.852Z,3.50
2019-06-25T11:44:24.876Z,3.80
2019-06-25T11:46:53.830Z,3.60
2019-06-25T11:49:22.739Z,3.57
2019-06-25T11:51:51.774Z,4.03
2019-06-25T11:54:20.810Z,3.90
2019-06-25T11:56:49.826Z,3.33
2019-06-25T11:59:18.708Z,4.10
2019-06-25T12:01:47.707Z,6.53
2019-06-25T12:04:16.691Z,4.00
2019-06-25T12:06:54.075Z,4.20
2019-06-25T12:09:16.217Z,4.30
2019-06-25T12:11:45.086Z,4.17
2019-06-25T12:14:13.970Z,3.87
2019-06-25T12:16:42.963Z,4.00
2019-06-25T12:19:11.839Z,4.03
2019-06-25T12:21:44.452Z,4.23
2019-06-25T12:24:11.374Z,5.47
2019-06-25T12:26:40.267Z,3.90
2019-06-25T12:29:09.169Z,4.00
2019-06-25T12:31:37.971Z,4.20
2019-06-25T12:34:06.942Z,4.57
2019-06-25T12:36:35.822Z,4.10
2019-06-25T12:39:06.130Z,3.77
2019-06-25T12:41:35.002Z,5.00
2019-06-25T12:44:04.030Z,3.70
2019-06-25T12:46:32.918Z,3.90
2019-06-25T12:49:01.792Z,3.87
2019-06-25T12:51:30.706Z,3.53
2019-06-25T12:53:59.583Z,5.15
2019-06-25T12:56:28.480Z,4.62
2019-06-25T12:58:57.371Z,4.45
2019-06-25T13:01:40.204Z,3.90
2019-06-25T13:03:56.990Z,3.93
2019-06-25T13:06:26.052Z,4.03
2019-06-25T13:08:55.181Z,4.28
2019-06-25T13:11:24.086Z,4.28
2019-06-25T13:13:52.956Z,4.28
2019-06-25T13:16:21.856Z,3.67
2019-06-25T13:18:51.166Z,5.72
2019-06-25T13:21:20.074Z,4.17
2019-06-25T13:23:48.942Z,4.05
2019-06-25T13:26:17.822Z,4.10
2019-06-25T13:28:46.708Z,4.17
2019-06-25T13:31:15.717Z,4.75
2019-06-25T13:33:44.608Z,4.08
2019-06-25T13:36:13.493Z,4.55
2019-06-25T13:38:42.385Z,4.05
2019-06-25T13:41:11.357Z,4.40
2019-06-25T13:43:40.253Z,4.03
2019-06-25T13:46:09.136Z,4.12
2019-06-25T13:48:38.004Z,4.30
2019-06-25T13:51:06.927Z,3.70
2019-06-25T13:53:35.781Z,4.80
2019-06-25T13:56:04.793Z,4.10
2019-06-25T13:58:33.687Z,4.08
2019-06-25T14:01:02.577Z,4.75
2019-06-25T14:03:31.573Z,8.45
2019-06-25T14:06:00.459Z,4.20
2019-06-25T14:08:29.348Z,3.98
2019-06-25T14:10:58.165Z,4.58
2019-06-25T14:13:27.125Z,4.50
2019-06-25T14:15:56.734Z,4.25
2019-06-25T14:18:25.726Z,5.87
2019-06-25T14:20:54.615Z,4.47
2019-06-25T14:23:23.522Z,4.22
2019-06-25T14:26:06.093Z,4.12
2019-06-25T14:28:23.027Z,3.83
2019-06-25T14:30:51.922Z,4.00
2019-06-25T14:33:20.938Z,4.10
2019-06-25T14:35:49.796Z,4.37
2019-06-25T14:38:18.788Z,3.70
2019-06-25T14:40:47.697Z,3.40
2019-06-25T14:43:16.667Z,3.75
2019-06-25T14:45:45.660Z,4.15
2019-06-25T14:48:14.550Z,4.17
2019-06-25T14:50:43.439Z,3.83
2019-06-25T14:53:12.273Z,4.60
2019-06-25T14:55:41.221Z,3.72
2019-06-25T14:58:10.133Z,3.90
2019-06-25T15:00:38.997Z,4.25
2019-06-25T15:03:07.889Z,4.58
2019-06-25T15:05:36.884Z,3.77
2019-06-25T15:08:05.720Z,3.85
2019-06-25T15:10:34.665Z,4.03
2019-06-25T15:13:03.572Z,3.58
2019-06-25T15:15:33.778Z,3.60
2019-06-25T15:18:02.923Z,4.95
2019-06-25T15:20:31.962Z,4.00
2019-06-25T15:23:01.086Z,4.17
2019-06-25T15:25:29.939Z,5.12
2019-06-25T15:27:58.836Z,3.47
2019-06-25T15:30:29.203Z,4.78
2019-06-25T15:32:58.079Z,3.60
2019-06-25T15:35:26.961Z,3.70
2019-06-25T15:37:55.832Z,4.00
2019-06-25T15:40:24.828Z,3.30
2019-06-25T15:42:53.709Z,3.67
2019-06-25T15:45:22.599Z,3.33
2019-06-25T15:47:51.484Z,3.25
2019-06-25T15:50:20.378Z,3.72
2019-06-25T15:52:49.281Z,4.08
2019-06-25T15:55:18.143Z,3.83
2019-06-25T15:57:47.251Z,4.00
2019-06-25T16:00:16.572Z,5.65
2019-06-25T16:02:45.440Z,3.98
2019-06-25T16:05:14.349Z,3.98
2019-06-25T16:07:43.223Z,4.25
2019-06-25T16:10:12.315Z,3.83
2019-06-25T16:12:41.204Z,4.17
2019-06-25T16:15:10.304Z,3.75
2019-06-25T16:17:39.155Z,3.75
2019-06-25T16:20:08.101Z,4.33
2019-06-25T16:22:36.988Z,3.85
2019-06-25T16:25:06.060Z,3.65
2019-06-25T16:27:34.969Z,3.75
2019-06-25T16:30:04.147Z,3.67
2019-06-25T16:32:33.044Z,4.95
2019-06-25T16:35:02.181Z,3.37
2019-06-25T16:37:31.348Z,4.05
2019-06-25T16:40:00.227Z,3.77
2019-06-25T16:42:29.077Z,4.05
2019-06-25T16:44:58.013Z,3.17
2019-06-25T16:47:26.898Z,3.70
2019-06-25T16:49:55.879Z,3.42
2019-06-25T16:52:24.780Z,3.37
2019-06-25T16:54:53.763Z,3.67
2019-06-25T16:57:22.653Z,4.83
2019-06-25T16:59:54.662Z,4.35
2019-06-25T17:02:33.381Z,3.72
2019-06-25T17:04:52.787Z,3.58
2019-06-25T17:07:21.715Z,4.15
2019-06-25T17:09:50.704Z,3.65
2019-06-25T17:12:19.806Z,3.83
2019-06-25T17:14:48.772Z,3.87
2019-06-25T17:17:17.659Z,3.75
2019-06-25T17:19:46.569Z,4.62
2019-06-25T17:22:15.542Z,4.00
2019-06-25T17:24:44.431Z,4.27
2019-06-25T17:27:13.304Z,4.07
2019-06-25T17:29:42.230Z,3.90
2019-06-25T17:32:11.202Z,4.20
2019-06-25T17:34:40.101Z,4.73
2019-06-25T17:37:09.106Z,4.60
2019-06-25T17:39:50.352Z,3.67
2019-06-25T17:42:08.501Z,3.87
2019-06-25T17:44:37.392Z,4.07
2019-06-25T17:47:06.382Z,4.17
2019-06-25T17:49:35.284Z,4.17
2019-06-25T17:52:04.197Z,3.97
2019-06-25T17:54:33.053Z,3.83
2019-06-25T17:57:02.064Z,4.00
2019-06-25T17:59:30.951Z,4.37
2019-06-25T18:01:59.824Z,5.17
2019-06-25T18:04:28.818Z,3.80
2019-06-25T18:06:57.914Z,4.90
2019-06-25T18:09:39.875Z,3.90
2019-06-25T18:11:57.432Z,4.30
2019-06-25T18:14:26.294Z,4.77
2019-06-25T18:16:55.211Z,4.60
2019-06-25T18:19:24.067Z,6.43
2019-06-25T18:21:52.986Z,4.40
2019-06-25T18:24:21.885Z,4.87
2019-06-25T18:26:50.766Z,4.37
2019-06-25T18:29:19.661Z,4.50
2019-06-25T18:31:48.550Z,4.90
2019-06-25T18:34:17.441Z,4.40
2019-06-25T18:36:46.431Z,4.63
2019-06-25T18:39:15.319Z,5.07
2019-06-25T18:41:44.331Z,5.47
2019-06-25T18:44:13.322Z,4.80
2019-06-25T18:46:42.338Z,5.43
2019-06-25T18:49:14.391Z,4.63
2019-06-25T18:51:43.355Z,4.87
2019-06-25T18:54:12.269Z,4.60
2019-06-25T18:57:00.279Z,4.60
2019-06-25T18:59:29.173Z,5.80
2019-06-25T19:02:00.976Z,5.70
2019-06-25T19:04:28.553Z,5.40
2019-06-25T19:06:57.824Z,6.03
2019-06-25T19:09:27.002Z,6.00
2019-06-25T19:11:55.976Z,5.83
2019-06-25T19:14:24.867Z,6.83
2019-06-25T19:16:53.852Z,6.13
2019-06-25T19:19:22.776Z,6.43
2019-06-25T19:21:51.613Z,7.17
2019-06-25T19:24:20.554Z,6.90
2019-06-25T19:26:49.516Z,6.93
2019-06-25T19:29:18.423Z,7.03
2019-06-25T19:31:47.318Z,6.57
2019-06-25T19:34:16.203Z,7.27
2019-06-25T19:36:45.075Z,7.73
2019-06-25T19:39:14.081Z,7.60
2019-06-25T19:41:42.959Z,9.87
2019-06-25T19:44:11.825Z,8.00
2019-06-25T19:46:40.742Z,7.50
2019-06-25T19:49:09.603Z,7.10
2019-06-25T19:51:38.637Z,7.27
2019-06-25T19:54:07.608Z,7.50
2019-06-25T19:56:36.508Z,7.20
2019-06-25T19:59:05.491Z,7.60
2019-06-25T20:01:34.493Z,8.10
2019-06-25T20:04:03.510Z,7.60
2019-06-25T20:06:32.485Z,8.10
2019-06-25T20:09:01.426Z,7.57
2019-06-25T20:11:30.578Z,8.83
2019-06-25T20:13:59.549Z,8.13
2019-06-25T20:16:28.437Z,9.00
2019-06-25T20:18:57.348Z,8.03
2019-06-25T20:21:26.439Z,7.60
2019-06-25T20:23:55.411Z,7.10
2019-06-25T20:26:24.238Z,7.70
2019-06-25T20:28:53.191Z,8.10
2019-06-25T20:31:22.080Z,8.20
2019-06-25T20:33:50.993Z,8.10
2019-06-25T20:36:19.864Z,8.10
2019-06-25T20:38:50.777Z,8.67
2019-06-25T20:41:28.473Z,7.80
2019-06-25T20:43:50.028Z,8.20
2019-06-25T20:46:18.902Z,8.27
2019-06-25T20:48:47.787Z,7.80
2019-06-25T20:51:16.717Z,8.37
2019-06-25T20:53:45.589Z,8.27
2019-06-25T20:56:14.462Z,8.13
2019-06-25T20:58:43.353Z,8.93
2019-06-25T21:01:12.178Z,8.67
2019-06-25T21:03:41.146Z,8.60
2019-06-25T21:06:09.950Z,8.73
2019-06-25T21:08:38.815Z,8.87
2019-06-25T21:11:07.695Z,8.67
2019-06-25T21:13:36.582Z,9.17
2019-06-25T21:16:05.466Z,8.43
2019-06-25T21:18:34.369Z,8.13
2019-06-25T21:21:03.260Z,10.83
2019-06-25T21:23:32.249Z,8.37
2019-06-25T21:26:01.159Z,8.87
2019-06-25T21:28:30.022Z,8.43
2019-06-25T21:30:59.020Z,8.67
2019-06-25T21:33:28.013Z,8.00
2019-06-25T21:35:56.927Z,8.43
2019-06-25T21:38:29.474Z,8.37
2019-06-25T21:40:56.420Z,8.17
2019-06-25T21:43:26.444Z,8.10
2019-06-25T21:45:55.731Z,7.57
2019-06-25T21:48:24.630Z,8.80
2019-06-25T21:50:53.486Z,8.43
2019-06-25T21:53:22.424Z,8.27
2019-06-25T21:55:51.291Z,8.77
2019-06-25T21:58:20.183Z,8.70
2019-06-25T22:00:49.576Z,9.07
2019-06-25T22:03:18.606Z,8.63
2019-06-25T22:05:47.588Z,9.03
2019-06-25T22:08:16.559Z,9.50
2019-06-25T22:10:45.480Z,9.77
2019-06-25T22:13:14.305Z,9.47
2019-06-25T22:15:43.231Z,8.07
2019-06-25T22:18:12.059Z,9.43
2019-06-25T22:20:41.060Z,8.80
2019-06-25T22:23:09.897Z,8.20
2019-06-25T22:25:38.783Z,8.97
2019-06-25T22:28:07.805Z,9.13
2019-06-25T22:30:36.790Z,9.00
2019-06-25T22:33:05.669Z,9.13
2019-06-25T22:35:34.550Z,8.63
2019-06-25T22:38:03.548Z,8.67
2019-06-25T22:40:32.637Z,8.60
2019-06-25T22:43:01.527Z,9.30
2019-06-25T22:45:30.425Z,9.07
2019-06-25T22:47:59.323Z,8.20
2019-06-25T22:50:28.299Z,8.87
2019-06-25T22:52:57.208Z,8.83
2019-06-25T22:55:26.099Z,8.77
2019-06-25T22:57:54.974Z,9.67
2019-06-25T23:00:23.858Z,9.27
2019-06-25T23:02:52.758Z,9.93
2019-06-25T23:05:21.738Z,8.23
2019-06-25T23:07:50.772Z,8.90
2019-06-25T23:10:19.742Z,8.53
2019-06-25T23:12:54.210Z,9.60
2019-06-25T23:15:19.676Z,9.43
2019-06-25T23:17:48.519Z,10.57
2019-06-25T23:20:17.433Z,10.23
2019-06-25T23:22:46.324Z,9.23
2019-06-25T23:25:15.312Z,9.27
2019-06-25T23:27:44.223Z,8.87
2019-06-25T23:30:13.194Z,9.37
2019-06-25T23:32:42.020Z,9.07
2019-06-25T23:35:10.988Z,8.90
2019-06-25T23:37:39.866Z,9.20
2019-06-25T23:40:08.959Z,9.10
2019-06-25T23:42:37.847Z,9.73
2019-06-25T23:45:07.051Z,8.53
2019-06-25T23:47:35.941Z,9.20
2019-06-25T23:50:05.240Z,8.80
2019-06-25T23:52:34.125Z,10.00
2019-06-25T23:55:03.113Z,10.57
2019-06-25T23:57:32.025Z,12.03
